createdAt,value
2018-07-03T00:00:05.761Z,0.00
2018-07-03T00:01:05.765Z,0.00
2018-07-03T00:02:05.745Z,0.00
2018-07-03T00:03:05.731Z,0.00
2018-07-03T00:04:05.718Z,0.00
2018-07-03T00:05:05.710Z,0.00
2018-07-03T00:06:05.713Z,0.00
2018-07-03T00:07:05.685Z,0.00
2018-07-03T00:08:05.674Z,0.00
2018-07-03T00:09:05.662Z,0.00
2018-07-03T00:10:05.654Z,0.00
2018-07-03T00:11:05.657Z,0.00
2018-07-03T00:12:05.641Z,0.00
2018-07-03T00:13:05.639Z,0.00
2018-07-03T00:14:05.611Z,0.00
2018-07-03T00:15:05.598Z,0.00
2018-07-03T00:16:05.602Z,0.00
2018-07-03T00:17:05.576Z,0.00
2018-07-03T00:18:05.563Z,0.00
2018-07-03T00:19:05.557Z,0.00
2018-07-03T00:20:05.564Z,0.00
2018-07-03T00:21:05.554Z,0.00
2018-07-03T00:22:05.520Z,0.00
2018-07-03T00:23:05.510Z,0.00
2018-07-03T00:24:05.499Z,0.00
2018-07-03T00:25:05.513Z,0.00
2018-07-03T00:26:05.474Z,0.00
2018-07-03T00:27:05.479Z,0.00
2018-07-03T00:28:05.467Z,0.00
2018-07-03T00:29:05.448Z,0.00
2018-07-03T00:30:05.432Z,0.00
2018-07-03T00:31:05.419Z,0.00
2018-07-03T00:32:05.412Z,0.00
2018-07-03T00:33:05.420Z,0.00
2018-07-03T00:34:05.388Z,0.00
2018-07-03T00:35:05.416Z,0.00
2018-07-03T00:36:05.369Z,0.00
2018-07-03T00:37:05.355Z,0.00
2018-07-03T00:38:05.369Z,0.00
2018-07-03T00:39:05.335Z,0.00
2018-07-03T00:40:05.326Z,0.00
2018-07-03T00:41:05.311Z,0.00
2018-07-03T00:42:05.304Z,0.00
2018-07-03T00:43:05.290Z,0.00
2018-07-03T00:44:05.297Z,0.00
2018-07-03T00:45:05.276Z,0.00
2018-07-03T00:46:05.261Z,0.00
2018-07-03T00:47:05.250Z,0.00
2018-07-03T00:48:05.241Z,0.00
2018-07-03T00:49:05.226Z,0.00
2018-07-03T00:50:05.234Z,0.00
2018-07-03T00:51:05.204Z,0.00
2018-07-03T00:52:05.201Z,0.00
2018-07-03T00:53:05.182Z,0.00
2018-07-03T00:54:05.174Z,0.00
2018-07-03T00:55:05.173Z,0.00
2018-07-03T00:56:05.171Z,0.00
2018-07-03T00:57:05.141Z,0.00
2018-07-03T00:58:05.127Z,0.00
2018-07-03T00:59:05.120Z,0.00
2018-07-03T01:00:05.108Z,0.00
2018-07-03T01:01:05.097Z,0.00
2018-07-03T01:02:05.097Z,0.00
2018-07-03T01:03:05.082Z,0.00
2018-07-03T01:04:05.064Z,0.00
2018-07-03T01:05:05.055Z,0.00
2018-07-03T01:06:05.057Z,0.00
2018-07-03T01:07:05.056Z,0.00
2018-07-03T01:08:05.027Z,0.00
2018-07-03T01:09:05.010Z,0.00
2018-07-03T01:10:05.002Z,0.00
2018-07-03T01:11:05.024Z,0.00
2018-07-03T01:12:04.975Z,0.00
2018-07-03T01:13:04.978Z,0.00
2018-07-03T01:14:04.956Z,0.00
2018-07-03T01:15:04.947Z,0.00
2018-07-03T01:16:04.935Z,0.00
2018-07-03T01:17:04.938Z,0.00
2018-07-03T01:18:04.910Z,0.00
2018-07-03T01:19:04.902Z,0.00
2018-07-03T01:20:04.889Z,0.00
2018-07-03T01:21:04.903Z,0.00
2018-07-03T01:22:04.881Z,0.00
2018-07-03T01:23:04.867Z,0.00
2018-07-03T01:24:04.846Z,0.00
2018-07-03T01:25:04.859Z,0.00
2018-07-03T01:26:04.825Z,0.00
2018-07-03T01:27:04.834Z,0.00
2018-07-03T01:28:04.802Z,0.00
2018-07-03T01:29:04.791Z,0.00
2018-07-03T01:30:04.779Z,0.00
2018-07-03T01:31:04.782Z,0.00
2018-07-03T01:32:04.758Z,0.00
2018-07-03T01:33:04.748Z,0.00
2018-07-03T01:34:04.737Z,0.00
2018-07-03T01:35:04.740Z,0.00
2018-07-03T01:36:04.769Z,0.00
2018-07-03T01:37:04.705Z,0.00
2018-07-03T01:38:04.690Z,0.00
2018-07-03T01:39:04.682Z,0.00
2018-07-03T01:40:04.681Z,0.00
2018-07-03T01:41:04.658Z,0.00
2018-07-03T01:42:04.657Z,0.00
2018-07-03T01:43:04.637Z,0.00
2018-07-03T01:44:04.626Z,0.00
2018-07-03T01:45:04.617Z,0.00
2018-07-03T01:46:04.604Z,0.00
2018-07-03T01:47:04.607Z,0.00
2018-07-03T01:48:04.597Z,0.00
2018-07-03T01:49:04.574Z,0.00
2018-07-03T01:50:04.557Z,0.00
2018-07-03T01:51:04.549Z,0.00
2018-07-03T01:52:04.550Z,0.00
2018-07-03T01:53:04.524Z,0.00
2018-07-03T01:54:04.540Z,0.00
2018-07-03T01:55:04.501Z,0.00
2018-07-03T01:56:04.507Z,0.00
2018-07-03T01:57:04.478Z,0.00
2018-07-03T01:58:04.484Z,0.00
2018-07-03T01:59:04.456Z,0.00
2018-07-03T02:00:04.461Z,0.00
2018-07-03T02:01:04.434Z,0.00
2018-07-03T02:02:04.448Z,0.00
2018-07-03T02:03:04.415Z,0.00
2018-07-03T02:04:04.402Z,0.00
2018-07-03T02:05:04.391Z,0.00
2018-07-03T02:06:04.382Z,0.00
2018-07-03T02:07:04.369Z,0.00
2018-07-03T02:08:04.372Z,0.00
2018-07-03T02:09:04.385Z,0.00
2018-07-03T02:10:04.337Z,0.00
2018-07-03T02:11:04.326Z,0.00
2018-07-03T02:12:04.314Z,0.00
2018-07-03T02:13:04.300Z,0.00
2018-07-03T02:14:04.290Z,0.00
2018-07-03T02:15:04.314Z,0.00
2018-07-03T02:16:04.268Z,0.00
2018-07-03T02:17:04.260Z,0.00
2018-07-03T02:18:04.248Z,0.00
2018-07-03T02:19:04.248Z,0.00
2018-07-03T02:20:04.240Z,0.00
2018-07-03T02:21:04.212Z,0.00
2018-07-03T02:22:04.200Z,0.00
2018-07-03T02:23:04.192Z,0.00
2018-07-03T02:24:04.196Z,0.00
2018-07-03T02:25:04.185Z,0.00
2018-07-03T02:26:04.159Z,0.00
2018-07-03T02:27:04.166Z,0.00
2018-07-03T02:28:04.133Z,0.00
2018-07-03T02:29:04.127Z,0.00
2018-07-03T02:30:04.114Z,0.00
2018-07-03T02:31:04.110Z,0.00
2018-07-03T02:32:04.108Z,0.00
2018-07-03T02:33:04.080Z,0.00
2018-07-03T02:34:04.068Z,0.00
2018-07-03T02:35:04.059Z,0.00
2018-07-03T02:36:04.048Z,0.00
2018-07-03T02:37:04.037Z,0.00
2018-07-03T02:38:04.038Z,0.00
2018-07-03T02:39:04.061Z,0.00
2018-07-03T02:40:03.999Z,0.00
2018-07-03T02:41:03.988Z,0.00
2018-07-03T02:42:03.991Z,0.00
2018-07-03T02:43:04.381Z,0.00
2018-07-03T02:44:03.955Z,0.00
2018-07-03T02:45:03.943Z,0.00
2018-07-03T02:46:03.932Z,0.00
2018-07-03T02:47:03.924Z,0.00
2018-07-03T02:48:03.909Z,0.00
2018-07-03T02:49:03.915Z,0.00
2018-07-03T02:50:03.892Z,0.00
2018-07-03T02:51:03.878Z,0.00
2018-07-03T02:52:03.877Z,0.00
2018-07-03T02:53:03.852Z,0.00
2018-07-03T02:54:03.853Z,0.00
2018-07-03T02:55:03.843Z,0.00
2018-07-03T02:56:03.820Z,0.00
2018-07-03T02:57:03.808Z,0.00
2018-07-03T02:58:03.798Z,0.00
2018-07-03T02:59:03.805Z,5.62
2018-07-03T03:00:03.777Z,5.62
2018-07-03T03:01:03.767Z,5.62
2018-07-03T03:02:03.764Z,5.62
2018-07-03T03:03:03.747Z,5.62
2018-07-03T03:04:03.732Z,5.62
2018-07-03T03:05:03.733Z,5.62
2018-07-03T03:06:03.712Z,5.62
2018-07-03T03:07:03.697Z,11.25
2018-07-03T03:08:03.687Z,11.25
2018-07-03T03:09:03.678Z,11.25
2018-07-03T03:10:03.689Z,11.25
2018-07-03T03:11:03.656Z,11.25
2018-07-03T03:12:03.644Z,11.25
2018-07-03T03:13:03.632Z,16.88
2018-07-03T03:14:03.624Z,16.88
2018-07-03T03:15:03.613Z,16.88
2018-07-03T03:16:03.615Z,16.88
2018-07-03T03:17:03.591Z,16.88
2018-07-03T03:18:03.581Z,22.50
2018-07-03T03:19:03.568Z,22.50
2018-07-03T03:20:03.561Z,22.50
2018-07-03T03:21:03.567Z,22.50
2018-07-03T03:22:03.539Z,28.12
2018-07-03T03:23:03.526Z,28.12
2018-07-03T03:24:03.518Z,28.12
2018-07-03T03:25:03.517Z,28.12
2018-07-03T03:26:03.497Z,33.75
2018-07-03T03:27:03.505Z,33.75
2018-07-03T03:28:03.488Z,33.75
2018-07-03T03:29:03.465Z,33.75
2018-07-03T03:30:03.455Z,39.38
2018-07-03T03:31:03.445Z,39.38
2018-07-03T03:32:03.430Z,39.38
2018-07-03T03:33:03.431Z,45.00
2018-07-03T03:34:03.406Z,45.00
2018-07-03T03:35:03.398Z,45.00
2018-07-03T03:36:03.387Z,50.62
2018-07-03T03:37:03.377Z,50.62
2018-07-03T03:38:03.384Z,50.62
2018-07-03T03:39:03.377Z,50.62
2018-07-03T03:40:03.345Z,56.25
2018-07-03T03:41:03.331Z,56.25
2018-07-03T03:42:03.323Z,56.25
2018-07-03T03:43:03.313Z,61.88
2018-07-03T03:44:03.298Z,61.88
2018-07-03T03:45:03.303Z,61.88
2018-07-03T03:46:03.278Z,67.50
2018-07-03T03:47:03.271Z,67.50
2018-07-03T03:48:03.259Z,67.50
2018-07-03T03:49:03.266Z,73.12
2018-07-03T03:50:03.255Z,73.12
2018-07-03T03:51:03.227Z,73.12
2018-07-03T03:52:03.213Z,78.75
2018-07-03T03:53:03.205Z,78.75
2018-07-03T03:54:03.191Z,78.75
2018-07-03T03:55:03.198Z,84.38
2018-07-03T03:56:03.170Z,84.38
2018-07-03T03:57:03.165Z,84.38
2018-07-03T03:58:03.151Z,90.00
2018-07-03T03:59:03.149Z,90.00
2018-07-03T04:00:03.131Z,90.00
2018-07-03T04:01:03.115Z,95.62
2018-07-03T04:02:03.113Z,95.62
2018-07-03T04:03:03.094Z,95.62
2018-07-03T04:04:03.095Z,101.25
2018-07-03T04:05:03.072Z,101.25
2018-07-03T04:06:03.064Z,101.25
2018-07-03T04:07:03.057Z,101.25
2018-07-03T04:08:03.073Z,106.88
2018-07-03T04:09:03.032Z,106.88
2018-07-03T04:10:03.021Z,106.88
2018-07-03T04:11:03.012Z,112.50
2018-07-03T04:12:03.003Z,112.50
2018-07-03T04:13:03.009Z,112.50
2018-07-03T04:14:02.977Z,112.50
2018-07-03T04:15:02.971Z,118.12
2018-07-03T04:16:02.958Z,118.12
2018-07-03T04:17:02.948Z,118.12
2018-07-03T04:18:02.937Z,118.12
2018-07-03T04:19:02.962Z,123.75
2018-07-03T04:20:02.914Z,123.75
2018-07-03T04:21:02.905Z,123.75
2018-07-03T04:22:02.893Z,129.38
2018-07-03T04:23:02.884Z,129.38
2018-07-03T04:24:02.885Z,129.38
2018-07-03T04:25:02.883Z,129.38
2018-07-03T04:26:02.850Z,135.00
2018-07-03T04:27:02.837Z,135.00
2018-07-03T04:28:02.828Z,135.00
2018-07-03T04:29:02.818Z,135.00
2018-07-03T04:30:02.805Z,140.62
2018-07-03T04:31:02.813Z,140.62
2018-07-03T04:32:02.786Z,140.62
2018-07-03T04:33:02.777Z,140.62
2018-07-03T04:34:02.771Z,140.62
2018-07-03T04:35:02.753Z,146.25
2018-07-03T04:36:02.744Z,146.25
2018-07-03T04:37:02.753Z,146.25
2018-07-03T04:38:02.720Z,146.25
2018-07-03T04:39:02.713Z,151.88
2018-07-03T04:40:02.698Z,151.88
2018-07-03T04:41:02.724Z,151.88
2018-07-03T04:42:02.675Z,151.88
2018-07-03T04:43:02.663Z,151.88
2018-07-03T04:44:02.653Z,157.50
2018-07-03T04:45:02.648Z,157.50
2018-07-03T04:46:02.631Z,157.50
2018-07-03T04:47:02.642Z,157.50
2018-07-03T04:48:02.607Z,163.12
2018-07-03T04:49:02.595Z,163.12
2018-07-03T04:50:02.583Z,163.12
2018-07-03T04:51:02.574Z,163.12
2018-07-03T04:52:02.566Z,163.12
2018-07-03T04:53:02.562Z,168.75
2018-07-03T04:54:02.544Z,168.75
2018-07-03T04:55:02.527Z,168.75
2018-07-03T04:56:02.538Z,168.75
2018-07-03T04:57:02.506Z,168.75
2018-07-03T04:58:02.507Z,174.38
2018-07-03T04:59:02.506Z,174.38
2018-07-03T05:00:02.472Z,174.38
2018-07-03T05:01:02.466Z,174.38
2018-07-03T05:02:02.449Z,174.38
2018-07-03T05:03:02.441Z,174.38
2018-07-03T05:04:02.438Z,180.00
2018-07-03T05:05:02.417Z,180.00
2018-07-03T05:06:02.405Z,180.00
2018-07-03T05:07:02.399Z,180.00
2018-07-03T05:08:02.384Z,180.00
2018-07-03T05:09:02.387Z,185.62
2018-07-03T05:10:02.380Z,185.62
2018-07-03T05:11:02.387Z,185.62
2018-07-03T05:12:02.343Z,185.62
2018-07-03T05:13:02.333Z,185.62
2018-07-03T05:14:02.320Z,185.62
2018-07-03T05:15:02.312Z,191.25
2018-07-03T05:16:02.299Z,191.25
2018-07-03T05:17:02.303Z,191.25
2018-07-03T05:18:02.279Z,191.25
2018-07-03T05:19:02.264Z,191.25
2018-07-03T05:20:02.274Z,191.25
2018-07-03T05:21:02.245Z,196.88
2018-07-03T05:22:02.237Z,196.88
2018-07-03T05:23:02.220Z,196.88
2018-07-03T05:24:02.212Z,196.88
2018-07-03T05:25:02.199Z,196.88
2018-07-03T05:26:02.203Z,196.88
2018-07-03T05:27:02.180Z,202.50
2018-07-03T05:28:02.191Z,202.50
2018-07-03T05:29:02.158Z,202.50
2018-07-03T05:30:02.146Z,202.50
2018-07-03T05:31:02.138Z,202.50
2018-07-03T05:32:02.129Z,202.50
2018-07-03T05:33:02.117Z,208.12
2018-07-03T05:34:02.142Z,208.12
2018-07-03T05:35:02.094Z,208.12
2018-07-03T05:36:02.082Z,208.12
2018-07-03T05:37:02.071Z,208.12
2018-07-03T05:38:02.064Z,208.12
2018-07-03T05:39:02.067Z,208.12
2018-07-03T05:40:02.054Z,213.75
2018-07-03T05:41:02.030Z,213.75
2018-07-03T05:42:02.057Z,213.75
2018-07-03T05:43:02.017Z,213.75
2018-07-03T05:44:01.998Z,213.75
2018-07-03T05:45:01.989Z,213.75
2018-07-03T05:46:01.989Z,213.75
2018-07-03T05:47:01.964Z,219.38
2018-07-03T05:48:01.969Z,219.38
2018-07-03T05:49:01.943Z,219.38
2018-07-03T05:50:01.958Z,219.38
2018-07-03T05:51:01.980Z,219.38
2018-07-03T05:52:01.914Z,219.38
2018-07-03T05:53:01.903Z,219.38
2018-07-03T05:54:01.893Z,225.00
2018-07-03T05:55:01.881Z,225.00
2018-07-03T05:56:01.870Z,225.00
2018-07-03T05:57:01.899Z,225.00
2018-07-03T05:58:02.089Z,225.00
2018-07-03T05:59:01.844Z,225.00
2018-07-03T06:00:01.866Z,230.62
2018-07-03T06:01:01.814Z,230.62
2018-07-03T06:02:01.825Z,230.62
2018-07-03T06:03:01.805Z,230.62
2018-07-03T06:04:01.795Z,230.62
2018-07-03T06:05:01.772Z,230.62
2018-07-03T06:06:01.777Z,236.25
2018-07-03T06:07:01.751Z,236.25
2018-07-03T06:08:01.740Z,236.25
2018-07-03T06:09:01.744Z,236.25
2018-07-03T06:10:01.741Z,236.25
2018-07-03T06:11:01.712Z,236.25
2018-07-03T06:12:01.695Z,241.88
2018-07-03T06:13:01.748Z,241.88
2018-07-03T06:14:01.675Z,241.88
2018-07-03T06:15:01.668Z,241.88
2018-07-03T06:16:01.660Z,241.88
2018-07-03T06:17:01.639Z,247.50
2018-07-03T06:18:01.637Z,247.50
2018-07-03T06:19:01.616Z,247.50
2018-07-03T06:20:01.613Z,247.50
2018-07-03T06:21:01.634Z,247.50
2018-07-03T06:22:01.585Z,241.88
2018-07-03T06:23:01.667Z,247.50
2018-07-03T06:24:01.565Z,253.12
2018-07-03T06:25:01.552Z,247.50
2018-07-03T06:26:01.544Z,247.50
2018-07-03T06:27:01.547Z,247.50
2018-07-03T06:28:01.525Z,253.12
2018-07-03T06:29:01.579Z,253.12
2018-07-03T06:30:01.501Z,253.12
2018-07-03T06:31:01.488Z,253.12
2018-07-03T06:32:01.478Z,258.75
2018-07-03T06:33:01.467Z,258.75
2018-07-03T06:34:01.457Z,264.38
2018-07-03T06:35:01.463Z,258.75
2018-07-03T06:36:01.434Z,264.38
2018-07-03T06:37:01.435Z,264.38
2018-07-03T06:38:01.419Z,264.38
2018-07-03T06:39:01.422Z,270.00
2018-07-03T06:40:01.393Z,270.00
2018-07-03T06:41:01.378Z,270.00
2018-07-03T06:42:01.371Z,275.62
2018-07-03T06:43:01.358Z,275.62
2018-07-03T06:44:01.350Z,275.62
2018-07-03T06:45:01.482Z,281.25
2018-07-03T06:46:01.365Z,281.25
2018-07-03T06:47:01.340Z,281.25
2018-07-03T06:48:01.309Z,286.88
2018-07-03T06:49:01.292Z,286.88
2018-07-03T06:50:01.302Z,292.50
2018-07-03T06:51:01.269Z,292.50
2018-07-03T06:52:01.263Z,298.12
2018-07-03T06:53:01.253Z,309.38
2018-07-03T06:54:01.240Z,337.50
2018-07-03T06:55:01.268Z,365.62
2018-07-03T06:56:01.235Z,860.62
2018-07-03T06:57:01.208Z,1563.75
2018-07-03T06:58:01.209Z,1738.12
2018-07-03T06:59:01.214Z,1687.50
2018-07-03T07:00:01.173Z,1721.25
2018-07-03T07:01:01.166Z,1743.75
2018-07-03T07:02:01.153Z,1665.00
2018-07-03T07:03:01.139Z,1485.00
2018-07-03T07:04:01.130Z,1530.00
2018-07-03T07:05:01.146Z,1732.50
2018-07-03T07:06:01.125Z,1766.25
2018-07-03T07:07:01.153Z,1777.50
2018-07-03T07:08:01.091Z,1665.00
2018-07-03T07:09:01.233Z,1659.38
2018-07-03T07:10:01.071Z,1895.62
2018-07-03T07:11:01.082Z,1856.25
2018-07-03T07:12:01.044Z,1794.38
2018-07-03T07:13:01.084Z,1861.88
2018-07-03T07:14:01.027Z,2109.38
2018-07-03T07:15:01.068Z,2115.00
2018-07-03T07:16:01.008Z,2070.00
2018-07-03T07:17:01.009Z,2160.00
2018-07-03T07:18:00.981Z,2165.62
2018-07-03T07:19:00.998Z,2272.50
2018-07-03T07:20:00.964Z,2070.00
2018-07-03T07:21:00.978Z,1423.12
2018-07-03T07:22:00.938Z,1164.38
2018-07-03T07:23:00.931Z,1170.00
2018-07-03T07:24:00.920Z,1170.00
2018-07-03T07:25:00.954Z,1181.25
2018-07-03T07:26:00.923Z,1164.38
2018-07-03T07:27:00.904Z,1395.00
2018-07-03T07:28:00.876Z,1957.50
2018-07-03T07:29:00.867Z,2216.25
2018-07-03T07:30:00.889Z,2070.00
2018-07-03T07:31:00.844Z,1985.62
2018-07-03T07:32:00.887Z,2053.12
2018-07-03T07:33:00.825Z,2086.88
2018-07-03T07:34:00.823Z,2165.62
2018-07-03T07:35:00.802Z,2311.88
2018-07-03T07:36:00.836Z,2418.75
2018-07-03T07:37:00.799Z,2334.38
2018-07-03T07:38:00.774Z,2311.88
2018-07-03T07:39:00.776Z,2379.38
2018-07-03T07:40:00.753Z,2452.50
2018-07-03T07:41:00.743Z,2508.75
2018-07-03T07:42:00.729Z,2458.12
2018-07-03T07:43:00.722Z,2334.38
2018-07-03T07:44:00.738Z,2401.88
2018-07-03T07:45:00.699Z,2503.12
2018-07-03T07:46:00.708Z,2407.50
2018-07-03T07:47:00.683Z,2424.38
2018-07-03T07:48:00.700Z,2413.12
2018-07-03T07:49:00.694Z,2407.50
2018-07-03T07:50:00.660Z,2503.12
2018-07-03T07:51:00.637Z,2536.88
2018-07-03T07:52:00.632Z,2491.88
2018-07-03T07:53:00.622Z,2576.25
2018-07-03T07:54:00.607Z,2565.00
2018-07-03T07:55:00.642Z,2520.00
2018-07-03T07:56:00.584Z,2531.25
2018-07-03T07:57:00.577Z,2581.88
2018-07-03T07:58:00.563Z,2643.75
2018-07-03T07:59:00.553Z,2778.75
2018-07-03T08:00:00.546Z,2655.00
2018-07-03T08:01:00.549Z,2694.38
2018-07-03T08:02:00.522Z,2700.00
2018-07-03T08:03:00.514Z,2733.75
2018-07-03T08:04:00.504Z,2700.00
2018-07-03T08:05:00.508Z,2784.38
2018-07-03T08:06:00.499Z,2829.38
2018-07-03T08:07:00.473Z,2812.50
2018-07-03T08:08:00.462Z,2874.38
2018-07-03T08:09:00.450Z,2851.88
2018-07-03T08:10:00.439Z,2880.00
2018-07-03T08:11:00.455Z,2981.25
2018-07-03T08:12:00.451Z,2823.75
2018-07-03T08:13:00.452Z,2660.62
2018-07-03T08:14:00.401Z,2981.25
2018-07-03T08:15:00.390Z,2970.00
2018-07-03T08:16:00.381Z,2880.00
2018-07-03T08:17:00.386Z,2902.50
2018-07-03T08:18:00.364Z,2885.62
2018-07-03T08:19:00.351Z,3144.38
2018-07-03T08:20:00.364Z,3054.38
2018-07-03T08:21:00.331Z,2778.75
2018-07-03T08:22:00.345Z,3099.38
2018-07-03T08:23:00.308Z,3290.62
2018-07-03T08:24:00.301Z,2958.75
2018-07-03T08:25:00.290Z,3037.50
2018-07-03T08:26:00.278Z,3262.50
2018-07-03T08:27:00.267Z,2964.38
2018-07-03T08:28:00.273Z,3155.62
2018-07-03T08:29:00.250Z,3391.88
2018-07-03T08:30:00.237Z,3144.38
2018-07-03T08:31:00.230Z,3003.75
2018-07-03T08:32:00.241Z,3330.00
2018-07-03T08:33:00.272Z,3234.38
2018-07-03T08:34:00.214Z,2728.12
2018-07-03T08:35:00.187Z,2840.62
2018-07-03T08:36:00.177Z,2863.12
2018-07-03T08:37:00.169Z,3313.12
2018-07-03T08:38:00.172Z,3088.12
2018-07-03T08:39:00.150Z,3369.38
2018-07-03T08:40:00.137Z,3431.25
2018-07-03T08:41:00.128Z,3065.62
2018-07-03T08:42:00.115Z,3178.12
2018-07-03T08:43:00.124Z,3566.25
2018-07-03T08:44:00.095Z,3633.75
2018-07-03T08:45:00.091Z,3448.12
2018-07-03T08:46:00.078Z,3386.25
2018-07-03T08:47:00.069Z,3459.38
2018-07-03T08:48:00.084Z,2739.38
2018-07-03T08:49:00.046Z,2553.75
2018-07-03T08:50:00.041Z,3076.88
2018-07-03T08:51:00.030Z,3465.00
2018-07-03T08:52:00.086Z,3611.25
2018-07-03T08:53:00.010Z,3695.62
2018-07-03T08:54:00.040Z,3712.50
2018-07-03T08:55:00.041Z,3453.75
2018-07-03T08:55:59.979Z,3414.38
2018-07-03T08:56:59.967Z,3588.75
2018-07-03T08:57:59.957Z,3543.75
2018-07-03T08:58:59.951Z,3352.50
2018-07-03T08:59:59.950Z,3178.12
2018-07-03T09:00:59.929Z,3223.12
2018-07-03T09:01:59.919Z,3048.75
2018-07-03T09:02:59.907Z,3031.88
2018-07-03T09:03:59.899Z,2458.12
2018-07-03T09:04:59.908Z,2385.00
2018-07-03T09:05:59.888Z,2891.25
2018-07-03T09:06:59.872Z,3352.50
2018-07-03T09:07:59.861Z,3493.12
2018-07-03T09:08:59.851Z,3476.25
2018-07-03T09:09:59.838Z,3155.62
2018-07-03T09:10:59.849Z,2677.50
2018-07-03T09:11:59.818Z,2581.88
2018-07-03T09:12:59.811Z,3048.75
2018-07-03T09:13:59.802Z,3639.38
2018-07-03T09:14:59.815Z,4275.00
2018-07-03T09:15:59.779Z,4128.75
2018-07-03T09:16:59.783Z,4168.12
2018-07-03T09:17:59.776Z,4117.50
2018-07-03T09:18:59.752Z,3971.25
2018-07-03T09:19:59.751Z,3875.62
2018-07-03T09:20:59.730Z,3830.62
2018-07-03T09:21:59.735Z,4016.25
2018-07-03T09:22:59.709Z,4100.62
2018-07-03T09:23:59.703Z,3971.25
2018-07-03T09:24:59.690Z,3993.75
2018-07-03T09:25:59.679Z,3673.12
2018-07-03T09:26:59.673Z,3009.38
2018-07-03T09:27:59.671Z,2598.75
2018-07-03T09:28:59.651Z,2340.00
2018-07-03T09:29:59.640Z,2261.25
2018-07-03T09:30:59.630Z,2126.25
2018-07-03T09:31:59.620Z,2278.12
2018-07-03T09:32:59.630Z,2823.75
2018-07-03T09:33:59.601Z,3172.50
2018-07-03T09:34:59.640Z,3037.50
2018-07-03T09:35:59.583Z,3251.25
2018-07-03T09:36:59.574Z,2964.38
2018-07-03T09:37:59.564Z,2913.75
2018-07-03T09:38:59.567Z,3060.00
2018-07-03T09:39:59.546Z,3116.25
2018-07-03T09:40:59.535Z,2857.50
2018-07-03T09:41:59.530Z,2655.00
2018-07-03T09:42:59.514Z,2863.12
2018-07-03T09:43:59.531Z,2925.00
2018-07-03T09:44:59.494Z,3375.00
2018-07-03T09:45:59.484Z,3301.88
2018-07-03T09:46:59.478Z,3228.75
2018-07-03T09:47:59.463Z,2998.12
2018-07-03T09:48:59.455Z,3003.75
2018-07-03T09:49:59.459Z,3251.25
2018-07-03T09:50:59.432Z,3397.50
2018-07-03T09:51:59.434Z,2975.62
2018-07-03T09:52:59.414Z,2328.75
2018-07-03T09:53:59.406Z,2913.75
2018-07-03T09:54:59.440Z,3588.75
2018-07-03T09:55:59.382Z,4151.25
2018-07-03T09:56:59.374Z,4179.38
2018-07-03T09:57:59.383Z,4168.12
2018-07-03T09:58:59.355Z,4230.00
2018-07-03T09:59:59.343Z,4207.50
2018-07-03T10:00:59.349Z,4291.88
2018-07-03T10:01:59.329Z,4224.38
2018-07-03T10:02:59.319Z,3943.12
2018-07-03T10:03:59.307Z,3538.12
2018-07-03T10:04:59.297Z,3712.50
2018-07-03T10:05:59.306Z,4050.00
2018-07-03T10:06:59.277Z,4224.38
2018-07-03T10:07:59.268Z,4230.00
2018-07-03T10:08:59.258Z,4258.12
2018-07-03T10:09:59.250Z,4218.75
2018-07-03T10:10:59.250Z,4252.50
2018-07-03T10:11:59.241Z,4196.25
2018-07-03T10:12:59.240Z,4241.25
2018-07-03T10:13:59.232Z,4415.62
2018-07-03T10:14:59.249Z,4466.25
2018-07-03T10:15:59.214Z,4303.12
2018-07-03T10:16:59.186Z,4134.38
2018-07-03T10:17:59.170Z,4134.38
2018-07-03T10:18:59.230Z,4331.25
2018-07-03T10:19:59.154Z,4263.75
2018-07-03T10:20:59.142Z,4297.50
2018-07-03T10:21:59.143Z,4325.62
2018-07-03T10:22:59.125Z,4376.25
2018-07-03T10:23:59.112Z,4567.50
2018-07-03T10:24:59.117Z,4421.25
2018-07-03T10:25:59.093Z,4320.00
2018-07-03T10:26:59.099Z,4381.88
2018-07-03T10:27:59.094Z,4303.12
2018-07-03T10:28:59.067Z,4128.75
2018-07-03T10:29:59.055Z,3931.88
2018-07-03T10:30:59.047Z,3763.12
2018-07-03T10:31:59.034Z,3363.75
2018-07-03T10:32:59.035Z,2638.12
2018-07-03T10:33:59.041Z,3673.12
2018-07-03T10:34:59.027Z,4387.50
2018-07-03T10:35:59.000Z,4280.62
2018-07-03T10:36:58.993Z,4050.00
2018-07-03T10:37:58.978Z,3526.88
2018-07-03T10:38:58.985Z,3335.62
2018-07-03T10:39:58.967Z,3088.12
2018-07-03T10:40:59.013Z,3217.50
2018-07-03T10:41:59.033Z,2761.88
2018-07-03T10:42:58.929Z,3774.38
2018-07-03T10:43:58.933Z,3847.50
2018-07-03T10:44:58.915Z,3915.00
2018-07-03T10:45:58.903Z,3628.12
2018-07-03T10:46:58.894Z,3960.00
2018-07-03T10:47:58.896Z,4348.12
2018-07-03T10:48:58.924Z,4320.00
2018-07-03T10:49:58.869Z,4280.62
2018-07-03T10:50:58.857Z,4342.50
2018-07-03T10:51:58.848Z,4134.38
2018-07-03T10:52:58.836Z,3903.75
2018-07-03T10:53:58.869Z,4303.12
2018-07-03T10:54:58.820Z,4550.62
2018-07-03T10:55:58.807Z,4286.25
2018-07-03T10:56:58.799Z,3943.12
2018-07-03T10:57:58.787Z,3723.75
2018-07-03T10:58:58.779Z,4128.75
2018-07-03T10:59:58.782Z,4111.88
2018-07-03T11:00:58.758Z,3892.50
2018-07-03T11:01:58.760Z,3408.75
2018-07-03T11:02:58.754Z,3628.12
2018-07-03T11:03:58.746Z,3926.25
2018-07-03T11:04:58.716Z,3892.50
2018-07-03T11:05:58.708Z,4111.88
2018-07-03T11:06:58.724Z,4483.12
2018-07-03T11:07:58.711Z,4443.75
2018-07-03T11:08:58.677Z,4168.12
2018-07-03T11:09:58.668Z,4117.50
2018-07-03T11:10:58.661Z,4359.38
2018-07-03T11:11:58.694Z,4471.88
2018-07-03T11:12:58.660Z,4320.00
2018-07-03T11:13:58.753Z,4308.75
2018-07-03T11:14:58.621Z,4370.62
2018-07-03T11:15:58.611Z,4241.25
2018-07-03T11:16:58.605Z,4021.88
2018-07-03T11:17:58.626Z,4246.88
2018-07-03T11:18:58.626Z,4488.75
2018-07-03T11:19:58.635Z,4314.38
2018-07-03T11:20:58.566Z,4128.75
2018-07-03T11:21:58.557Z,4246.88
2018-07-03T11:22:58.547Z,4173.75
2018-07-03T11:23:58.543Z,4089.38
2018-07-03T11:24:58.557Z,4443.75
2018-07-03T11:25:58.522Z,4516.88
2018-07-03T11:26:58.512Z,4314.38
2018-07-03T11:27:58.501Z,4336.88
2018-07-03T11:28:58.515Z,4365.00
2018-07-03T11:29:58.482Z,4393.12
2018-07-03T11:30:58.502Z,4421.25
2018-07-03T11:31:58.460Z,4404.38
2018-07-03T11:32:58.452Z,4055.62
2018-07-03T11:33:58.443Z,3948.75
2018-07-03T11:34:58.436Z,4365.00
2018-07-03T11:35:58.443Z,4516.88
2018-07-03T11:36:58.416Z,4601.25
2018-07-03T11:37:58.405Z,4595.62
2018-07-03T11:38:58.399Z,4410.00
2018-07-03T11:39:58.397Z,4303.12
2018-07-03T11:40:58.393Z,4500.00
2018-07-03T11:41:58.380Z,4488.75
2018-07-03T11:42:58.390Z,4342.50
2018-07-03T11:43:58.353Z,4432.50
2018-07-03T11:44:58.385Z,4511.25
2018-07-03T11:45:58.335Z,4533.75
2018-07-03T11:46:58.325Z,4573.12
2018-07-03T11:47:58.313Z,4466.25
2018-07-03T11:48:58.305Z,4438.12
2018-07-03T11:49:58.294Z,4466.25
2018-07-03T11:50:58.301Z,4545.00
2018-07-03T11:51:58.284Z,4500.00
2018-07-03T11:52:58.284Z,4393.12
2018-07-03T11:53:58.260Z,4275.00
2018-07-03T11:54:58.248Z,4185.00
2018-07-03T11:55:58.242Z,4291.88
2018-07-03T11:56:58.255Z,4207.50
2018-07-03T11:57:58.220Z,4280.62
2018-07-03T11:58:58.211Z,4348.12
2018-07-03T11:59:58.205Z,4359.38
2018-07-03T12:00:58.215Z,4173.75
2018-07-03T12:01:58.186Z,4398.75
2018-07-03T12:02:58.196Z,4471.88
2018-07-03T12:03:58.173Z,4426.88
2018-07-03T12:04:58.157Z,3982.50
2018-07-03T12:05:58.151Z,4230.00
2018-07-03T12:06:58.139Z,3577.50
2018-07-03T12:07:58.129Z,3836.25
2018-07-03T12:08:58.142Z,3898.12
2018-07-03T12:09:58.113Z,4303.12
2018-07-03T12:10:58.102Z,3695.62
2018-07-03T12:11:58.094Z,3189.38
2018-07-03T12:12:58.084Z,3133.12
2018-07-03T12:13:58.077Z,2424.38
2018-07-03T12:14:58.083Z,2086.88
2018-07-03T12:15:58.058Z,1918.12
2018-07-03T12:16:58.048Z,2070.00
2018-07-03T12:17:58.039Z,2008.12
2018-07-03T12:18:58.041Z,2728.12
2018-07-03T12:19:58.019Z,3431.25
2018-07-03T12:20:58.011Z,2621.25
2018-07-03T12:21:58.021Z,3015.00
2018-07-03T12:22:57.997Z,3127.50
2018-07-03T12:23:58.005Z,2666.25
2018-07-03T12:24:57.972Z,3532.50
2018-07-03T12:25:57.963Z,3391.88
2018-07-03T12:26:57.951Z,3481.88
2018-07-03T12:27:57.942Z,4156.88
2018-07-03T12:28:58.000Z,4016.25
2018-07-03T12:29:57.952Z,2801.25
2018-07-03T12:30:57.914Z,2480.62